sensor_id;sensor_type;location;lat;lon;timestamp;P1;durP1;ratioP1;P2;durP2;ratioP2
57593;SDS011;43423;46.510;6.686;2023-04-06T00:01:27;9.35;;;5.15;;
57593;SDS011;43423;46.510;6.686;2023-04-06T00:03:52;8.40;;;5.30;;
57593;SDS011;43423;46.510;6.686;2023-04-06T00:06:18;8.77;;;5.20;;
57593;SDS011;43423;46.510;6.686;2023-04-06T00:08:43;8.55;;;5.38;;
57593;SDS011;43423;46.510;6.686;2023-04-06T00:11:10;8.23;;;5.03;;
57593;SDS011;43423;46.510;6.686;2023-04-06T00:13:35;9.05;;;5.20;;
57593;SDS011;43423;46.510;6.686;2023-04-06T00:16:01;9.90;;;5.38;;
57593;SDS011;43423;46.510;6.686;2023-04-06T00:18:26;9.00;;;5.22;;
57593;SDS011;43423;46.510;6.686;2023-04-06T00:20:52;11.30;;;5.72;;
57593;SDS011;43423;46.510;6.686;2023-04-06T00:23:18;8.13;;;5.38;;
57593;SDS011;43423;46.510;6.686;2023-04-06T00:25:43;8.57;;;5.60;;
57593;SDS011;43423;46.510;6.686;2023-04-06T00:28:09;11.02;;;4.97;;
57593;SDS011;43423;46.510;6.686;2023-04-06T00:30:35;10.90;;;5.65;;
57593;SDS011;43423;46.510;6.686;2023-04-06T00:33:00;7.57;;;4.80;;
57593;SDS011;43423;46.510;6.686;2023-04-06T00:35:26;8.48;;;5.07;;
57593;SDS011;43423;46.510;6.686;2023-04-06T00:37:51;8.50;;;5.15;;
57593;SDS011;43423;46.510;6.686;2023-04-06T00:40:17;8.63;;;5.50;;
57593;SDS011;43423;46.510;6.686;2023-04-06T00:42:43;10.10;;;5.60;;
57593;SDS011;43423;46.510;6.686;2023-04-06T00:45:09;9.00;;;4.63;;
57593;SDS011;43423;46.510;6.686;2023-04-06T00:47:35;8.85;;;5.35;;
57593;SDS011;43423;46.510;6.686;2023-04-06T00:50:01;7.60;;;5.13;;
57593;SDS011;43423;46.510;6.686;2023-04-06T00:52:26;10.95;;;5.25;;
57593;SDS011;43423;46.510;6.686;2023-04-06T00:54:52;8.77;;;5.18;;
57593;SDS011;43423;46.510;6.686;2023-04-06T00:57:17;9.55;;;5.35;;
57593;SDS011;43423;46.510;6.686;2023-04-06T00:59:43;12.77;;;4.75;;
57593;SDS011;43423;46.510;6.686;2023-04-06T01:02:10;8.85;;;4.90;;
57593;SDS011;43423;46.510;6.686;2023-04-06T01:04:35;9.45;;;5.60;;
57593;SDS011;43423;46.510;6.686;2023-04-06T01:07:01;8.52;;;5.00;;
57593;SDS011;43423;46.510;6.686;2023-04-06T01:09:27;8.73;;;4.90;;
57593;SDS011;43423;46.510;6.686;2023-04-06T01:11:55;7.38;;;4.90;;
57593;SDS011;43423;46.510;6.686;2023-04-06T01:14:24;8.98;;;5.25;;
57593;SDS011;43423;46.510;6.686;2023-04-06T01:16:51;9.40;;;5.63;;
57593;SDS011;43423;46.510;6.686;2023-04-06T01:19:17;8.38;;;4.97;;
57593;SDS011;43423;46.510;6.686;2023-04-06T01:21:43;10.60;;;5.40;;
57593;SDS011;43423;46.510;6.686;2023-04-06T01:24:09;8.55;;;5.18;;
57593;SDS011;43423;46.510;6.686;2023-04-06T01:26:35;10.27;;;5.45;;
57593;SDS011;43423;46.510;6.686;2023-04-06T01:29:02;10.50;;;5.40;;
57593;SDS011;43423;46.510;6.686;2023-04-06T01:31:27;11.77;;;6.22;;
57593;SDS011;43423;46.510;6.686;2023-04-06T01:33:53;8.10;;;5.13;;
57593;SDS011;43423;46.510;6.686;2023-04-06T01:36:19;7.90;;;4.97;;
57593;SDS011;43423;46.510;6.686;2023-04-06T01:38:45;8.68;;;5.43;;
57593;SDS011;43423;46.510;6.686;2023-04-06T01:41:10;9.23;;;5.03;;
57593;SDS011;43423;46.510;6.686;2023-04-06T01:43:36;8.73;;;4.97;;
57593;SDS011;43423;46.510;6.686;2023-04-06T01:46:02;8.48;;;5.32;;
57593;SDS011;43423;46.510;6.686;2023-04-06T01:48:28;8.77;;;4.97;;
57593;SDS011;43423;46.510;6.686;2023-04-06T01:50:53;8.98;;;5.40;;
57593;SDS011;43423;46.510;6.686;2023-04-06T01:53:19;8.05;;;5.22;;
57593;SDS011;43423;46.510;6.686;2023-04-06T01:55:45;10.40;;;4.97;;
57593;SDS011;43423;46.510;6.686;2023-04-06T01:58:11;7.82;;;5.05;;
57593;SDS011;43423;46.510;6.686;2023-04-06T02:00:37;9.05;;;4.97;;
57593;SDS011;43423;46.510;6.686;2023-04-06T02:03:02;7.63;;;5.03;;
57593;SDS011;43423;46.510;6.686;2023-04-06T02:05:29;10.65;;;5.47;;
57593;SDS011;43423;46.510;6.686;2023-04-06T02:07:56;7.57;;;4.93;;
57593;SDS011;43423;46.510;6.686;2023-04-06T02:10:22;9.48;;;5.38;;
57593;SDS011;43423;46.510;6.686;2023-04-06T02:12:49;10.40;;;5.25;;
57593;SDS011;43423;46.510;6.686;2023-04-06T02:15:14;8.07;;;5.38;;
57593;SDS011;43423;46.510;6.686;2023-04-06T02:17:41;8.60;;;5.13;;
57593;SDS011;43423;46.510;6.686;2023-04-06T02:20:07;10.75;;;5.80;;
57593;SDS011;43423;46.510;6.686;2023-04-06T02:22:33;10.10;;;5.75;;
57593;SDS011;43423;46.510;6.686;2023-04-06T02:25:02;9.13;;;5.22;;
57593;SDS011;43423;46.510;6.686;2023-04-06T02:27:28;7.68;;;4.80;;
57593;SDS011;43423;46.510;6.686;2023-04-06T02:29:53;9.80;;;5.40;;
57593;SDS011;43423;46.510;6.686;2023-04-06T02:32:19;10.73;;;5.78;;
57593;SDS011;43423;46.510;6.686;2023-04-06T02:34:45;10.20;;;5.40;;
57593;SDS011;43423;46.510;6.686;2023-04-06T02:37:10;8.30;;;5.32;;
57593;SDS011;43423;46.510;6.686;2023-04-06T02:39:36;12.32;;;5.13;;
57593;SDS011;43423;46.510;6.686;2023-04-06T02:42:02;9.18;;;5.32;;
57593;SDS011;43423;46.510;6.686;2023-04-06T02:44:27;8.82;;;4.68;;
57593;SDS011;43423;46.510;6.686;2023-04-06T02:46:53;7.70;;;5.78;;
57593;SDS011;43423;46.510;6.686;2023-04-06T02:49:18;8.82;;;4.47;;
57593;SDS011;43423;46.510;6.686;2023-04-06T02:51:44;9.68;;;5.30;;
57593;SDS011;43423;46.510;6.686;2023-04-06T02:54:09;7.45;;;4.97;;
57593;SDS011;43423;46.510;6.686;2023-04-06T02:56:35;10.38;;;5.45;;
57593;SDS011;43423;46.510;6.686;2023-04-06T02:59:00;7.95;;;5.30;;
57593;SDS011;43423;46.510;6.686;2023-04-06T03:01:26;10.50;;;5.50;;
57593;SDS011;43423;46.510;6.686;2023-04-06T03:03:51;9.88;;;4.63;;
57593;SDS011;43423;46.510;6.686;2023-04-06T03:06:17;10.25;;;4.88;;
57593;SDS011;43423;46.510;6.686;2023-04-06T03:08:42;9.63;;;5.75;;
57593;SDS011;43423;46.510;6.686;2023-04-06T03:11:08;8.88;;;4.97;;
57593;SDS011;43423;46.510;6.686;2023-04-06T03:13:33;9.90;;;5.93;;
57593;SDS011;43423;46.510;6.686;2023-04-06T03:15:59;7.93;;;5.35;;
57593;SDS011;43423;46.510;6.686;2023-04-06T03:18:25;16.98;;;6.03;;
57593;SDS011;43423;46.510;6.686;2023-04-06T03:20:51;10.25;;;5.30;;
57593;SDS011;43423;46.510;6.686;2023-04-06T03:23:19;12.30;;;6.05;;
57593;SDS011;43423;46.510;6.686;2023-04-06T03:25:46;14.00;;;7.00;;
57593;SDS011;43423;46.510;6.686;2023-04-06T03:28:11;12.90;;;6.53;;
57593;SDS011;43423;46.510;6.686;2023-04-06T03:30:37;15.68;;;6.50;;
57593;SDS011;43423;46.510;6.686;2023-04-06T03:33:03;9.90;;;5.90;;
57593;SDS011;43423;46.510;6.686;2023-04-06T03:35:28;12.27;;;5.93;;
57593;SDS011;43423;46.510;6.686;2023-04-06T03:37:54;13.13;;;5.72;;
57593;SDS011;43423;46.510;6.686;2023-04-06T03:40:20;9.13;;;5.80;;
57593;SDS011;43423;46.510;6.686;2023-04-06T03:42:46;9.75;;;5.43;;
57593;SDS011;43423;46.510;6.686;2023-04-06T03:45:11;9.95;;;5.68;;
57593;SDS011;43423;46.510;6.686;2023-04-06T03:47:39;10.50;;;5.88;;
57593;SDS011;43423;46.510;6.686;2023-04-06T03:50:05;8.07;;;5.38;;
57593;SDS011;43423;46.510;6.686;2023-04-06T03:52:31;9.13;;;5.57;;
57593;SDS011;43423;46.510;6.686;2023-04-06T03:54:56;11.98;;;6.38;;
57593;SDS011;43423;46.510;6.686;2023-04-06T03:57:22;11.82;;;5.60;;
57593;SDS011;43423;46.510;6.686;2023-04-06T03:59:48;9.50;;;5.15;;
57593;SDS011;43423;46.510;6.686;2023-04-06T04:02:13;9.00;;;5.40;;
57593;SDS011;43423;46.510;6.686;2023-04-06T04:04:39;10.75;;;6.93;;
57593;SDS011;43423;46.510;6.686;2023-04-06T04:07:04;8.23;;;5.28;;
57593;SDS011;43423;46.510;6.686;2023-04-06T04:09:30;10.27;;;5.75;;
57593;SDS011;43423;46.510;6.686;2023-04-06T04:11:55;8.65;;;5.88;;
57593;SDS011;43423;46.510;6.686;2023-04-06T04:14:21;8.98;;;5.72;;
57593;SDS011;43423;46.510;6.686;2023-04-06T04:16:47;10.00;;;6.18;;
57593;SDS011;43423;46.510;6.686;2023-04-06T04:19:12;8.93;;;6.05;;
57593;SDS011;43423;46.510;6.686;2023-04-06T04:21:42;9.98;;;5.47;;
57593;SDS011;43423;46.510;6.686;2023-04-06T04:24:10;8.30;;;5.90;;
57593;SDS011;43423;46.510;6.686;2023-04-06T04:26:35;8.25;;;5.63;;
57593;SDS011;43423;46.510;6.686;2023-04-06T04:29:01;12.55;;;6.38;;
57593;SDS011;43423;46.510;6.686;2023-04-06T04:31:27;12.75;;;6.53;;
57593;SDS011;43423;46.510;6.686;2023-04-06T04:33:52;11.38;;;5.85;;
57593;SDS011;43423;46.510;6.686;2023-04-06T04:36:18;8.57;;;5.53;;
57593;SDS011;43423;46.510;6.686;2023-04-06T04:38:43;8.50;;;5.60;;
57593;SDS011;43423;46.510;6.686;2023-04-06T04:41:09;9.68;;;6.07;;
57593;SDS011;43423;46.510;6.686;2023-04-06T04:43:35;9.77;;;5.53;;
57593;SDS011;43423;46.510;6.686;2023-04-06T04:46:00;9.43;;;5.05;;
57593;SDS011;43423;46.510;6.686;2023-04-06T04:48:26;9.30;;;5.75;;
57593;SDS011;43423;46.510;6.686;2023-04-06T04:50:51;10.25;;;6.22;;
57593;SDS011;43423;46.510;6.686;2023-04-06T04:53:17;8.85;;;5.78;;
57593;SDS011;43423;46.510;6.686;2023-04-06T04:55:42;11.90;;;5.85;;
57593;SDS011;43423;46.510;6.686;2023-04-06T04:58:08;13.60;;;6.90;;
57593;SDS011;43423;46.510;6.686;2023-04-06T05:00:36;9.82;;;6.03;;
57593;SDS011;43423;46.510;6.686;2023-04-06T05:03:02;11.90;;;6.93;;
57593;SDS011;43423;46.510;6.686;2023-04-06T05:05:29;10.43;;;6.32;;
57593;SDS011;43423;46.510;6.686;2023-04-06T05:07:56;10.65;;;6.50;;
57593;SDS011;43423;46.510;6.686;2023-04-06T05:10:21;8.65;;;5.97;;
57593;SDS011;43423;46.510;6.686;2023-04-06T05:12:47;8.80;;;5.93;;
57593;SDS011;43423;46.510;6.686;2023-04-06T05:15:12;12.32;;;6.97;;
57593;SDS011;43423;46.510;6.686;2023-04-06T05:17:38;9.48;;;6.28;;
57593;SDS011;43423;46.510;6.686;2023-04-06T05:20:04;10.05;;;6.60;;
57593;SDS011;43423;46.510;6.686;2023-04-06T05:22:30;13.70;;;7.43;;
57593;SDS011;43423;46.510;6.686;2023-04-06T05:24:56;10.45;;;6.00;;
57593;SDS011;43423;46.510;6.686;2023-04-06T05:27:21;12.68;;;6.68;;
57593;SDS011;43423;46.510;6.686;2023-04-06T05:29:47;9.52;;;6.40;;
57593;SDS011;43423;46.510;6.686;2023-04-06T05:32:13;10.27;;;6.47;;
57593;SDS011;43423;46.510;6.686;2023-04-06T05:34:38;10.43;;;6.93;;
57593;SDS011;43423;46.510;6.686;2023-04-06T05:37:04;9.00;;;6.05;;
57593;SDS011;43423;46.510;6.686;2023-04-06T05:39:30;12.18;;;6.43;;
57593;SDS011;43423;46.510;6.686;2023-04-06T05:41:55;14.13;;;6.57;;
57593;SDS011;43423;46.510;6.686;2023-04-06T05:44:21;14.32;;;7.03;;
57593;SDS011;43423;46.510;6.686;2023-04-06T05:46:47;14.57;;;6.70;;
57593;SDS011;43423;46.510;6.686;2023-04-06T05:49:12;9.27;;;6.18;;
57593;SDS011;43423;46.510;6.686;2023-04-06T05:51:38;12.93;;;7.03;;
57593;SDS011;43423;46.510;6.686;2023-04-06T05:54:03;11.98;;;6.57;;
57593;SDS011;43423;46.510;6.686;2023-04-06T05:56:29;12.32;;;6.63;;
57593;SDS011;43423;46.510;6.686;2023-04-06T05:58:56;11.88;;;6.25;;
57593;SDS011;43423;46.510;6.686;2023-04-06T06:01:22;10.32;;;6.38;;
57593;SDS011;43423;46.510;6.686;2023-04-06T06:03:48;9.73;;;5.97;;
57593;SDS011;43423;46.510;6.686;2023-04-06T06:06:13;14.25;;;6.18;;
57593;SDS011;43423;46.510;6.686;2023-04-06T06:08:39;11.13;;;6.53;;
57593;SDS011;43423;46.510;6.686;2023-04-06T06:11:04;13.23;;;6.25;;
57593;SDS011;43423;46.510;6.686;2023-04-06T06:13:30;11.43;;;6.38;;
57593;SDS011;43423;46.510;6.686;2023-04-06T06:15:56;10.30;;;6.28;;
57593;SDS011;43423;46.510;6.686;2023-04-06T06:18:22;12.32;;;6.40;;
57593;SDS011;43423;46.510;6.686;2023-04-06T06:20:48;14.02;;;6.57;;
57593;SDS011;43423;46.510;6.686;2023-04-06T06:23:13;11.07;;;6.68;;
57593;SDS011;43423;46.510;6.686;2023-04-06T06:25:39;11.55;;;7.40;;
57593;SDS011;43423;46.510;6.686;2023-04-06T06:28:05;9.23;;;6.10;;
57593;SDS011;43423;46.510;6.686;2023-04-06T06:30:30;15.18;;;7.07;;
57593;SDS011;43423;46.510;6.686;2023-04-06T06:32:56;12.75;;;7.35;;
57593;SDS011;43423;46.510;6.686;2023-04-06T06:35:21;9.68;;;7.07;;
57593;SDS011;43423;46.510;6.686;2023-04-06T06:37:47;15.48;;;9.88;;
57593;SDS011;43423;46.510;6.686;2023-04-06T06:40:13;15.23;;;9.07;;
57593;SDS011;43423;46.510;6.686;2023-04-06T06:42:40;14.38;;;8.82;;
57593;SDS011;43423;46.510;6.686;2023-04-06T06:45:06;12.20;;;7.50;;
57593;SDS011;43423;46.510;6.686;2023-04-06T06:47:34;12.32;;;9.23;;
57593;SDS011;43423;46.510;6.686;2023-04-06T06:50:00;12.80;;;8.40;;
57593;SDS011;43423;46.510;6.686;2023-04-06T06:52:25;17.48;;;9.15;;
57593;SDS011;43423;46.510;6.686;2023-04-06T06:54:51;10.80;;;8.02;;
57593;SDS011;43423;46.510;6.686;2023-04-06T06:57:16;13.27;;;8.52;;
57593;SDS011;43423;46.510;6.686;2023-04-06T06:59:42;12.88;;;7.65;;
57593;SDS011;43423;46.510;6.686;2023-04-06T07:02:07;12.40;;;7.25;;
57593;SDS011;43423;46.510;6.686;2023-04-06T07:04:33;10.82;;;7.50;;
57593;SDS011;43423;46.510;6.686;2023-04-06T07:06:58;9.77;;;6.45;;
57593;SDS011;43423;46.510;6.686;2023-04-06T07:09:24;11.60;;;7.40;;
57593;SDS011;43423;46.510;6.686;2023-04-06T07:11:51;12.07;;;7.57;;
57593;SDS011;43423;46.510;6.686;2023-04-06T07:14:17;8.95;;;7.13;;
57593;SDS011;43423;46.510;6.686;2023-04-06T07:16:42;16.20;;;8.52;;
57593;SDS011;43423;46.510;6.686;2023-04-06T07:19:10;12.48;;;7.78;;
57593;SDS011;43423;46.510;6.686;2023-04-06T07:21:36;13.82;;;7.75;;
57593;SDS011;43423;46.510;6.686;2023-04-06T07:24:02;13.25;;;7.65;;
57593;SDS011;43423;46.510;6.686;2023-04-06T07:26:27;12.48;;;8.55;;
57593;SDS011;43423;46.510;6.686;2023-04-06T07:28:53;11.20;;;7.38;;
57593;SDS011;43423;46.510;6.686;2023-04-06T07:31:18;11.77;;;7.70;;
57593;SDS011;43423;46.510;6.686;2023-04-06T07:33:44;11.40;;;8.02;;
57593;SDS011;43423;46.510;6.686;2023-04-06T07:36:10;13.70;;;7.57;;
57593;SDS011;43423;46.510;6.686;2023-04-06T07:38:35;13.10;;;8.07;;
57593;SDS011;43423;46.510;6.686;2023-04-06T07:41:01;11.85;;;6.75;;
57593;SDS011;43423;46.510;6.686;2023-04-06T07:43:29;13.27;;;8.18;;
57593;SDS011;43423;46.510;6.686;2023-04-06T07:45:55;10.32;;;6.63;;
57593;SDS011;43423;46.510;6.686;2023-04-06T07:48:22;9.75;;;6.80;;
57593;SDS011;43423;46.510;6.686;2023-04-06T07:50:48;10.27;;;6.38;;
57593;SDS011;43423;46.510;6.686;2023-04-06T07:53:14;9.98;;;5.88;;
57593;SDS011;43423;46.510;6.686;2023-04-06T07:55:40;11.52;;;6.53;;
57593;SDS011;43423;46.510;6.686;2023-04-06T07:58:05;9.98;;;6.13;;
57593;SDS011;43423;46.510;6.686;2023-04-06T08:00:31;10.38;;;5.53;;
57593;SDS011;43423;46.510;6.686;2023-04-06T08:02:56;9.50;;;5.68;;
57593;SDS011;43423;46.510;6.686;2023-04-06T08:05:22;9.18;;;6.05;;
57593;SDS011;43423;46.510;6.686;2023-04-06T08:07:47;10.02;;;6.18;;
57593;SDS011;43423;46.510;6.686;2023-04-06T08:10:13;8.20;;;6.00;;
57593;SDS011;43423;46.510;6.686;2023-04-06T08:12:39;13.43;;;6.90;;
57593;SDS011;43423;46.510;6.686;2023-04-06T08:15:05;12.27;;;6.35;;
57593;SDS011;43423;46.510;6.686;2023-04-06T08:17:34;9.85;;;6.22;;
57593;SDS011;43423;46.510;6.686;2023-04-06T08:20:00;10.52;;;5.82;;
57593;SDS011;43423;46.510;6.686;2023-04-06T08:22:26;11.15;;;6.55;;
57593;SDS011;43423;46.510;6.686;2023-04-06T08:24:51;10.68;;;6.78;;
57593;SDS011;43423;46.510;6.686;2023-04-06T08:27:17;11.07;;;6.53;;
57593;SDS011;43423;46.510;6.686;2023-04-06T08:29:43;10.07;;;6.13;;
57593;SDS011;43423;46.510;6.686;2023-04-06T08:32:08;10.38;;;6.35;;
57593;SDS011;43423;46.510;6.686;2023-04-06T08:34:34;10.13;;;6.63;;
57593;SDS011;43423;46.510;6.686;2023-04-06T08:36:59;10.52;;;6.68;;
57593;SDS011;43423;46.510;6.686;2023-04-06T08:39:25;10.75;;;6.60;;
57593;SDS011;43423;46.510;6.686;2023-04-06T08:41:52;10.00;;;6.55;;
57593;SDS011;43423;46.510;6.686;2023-04-06T08:44:22;10.35;;;6.10;;
57593;SDS011;43423;46.510;6.686;2023-04-06T08:46:47;11.18;;;7.15;;
57593;SDS011;43423;46.510;6.686;2023-04-06T08:49:13;9.20;;;6.43;;
57593;SDS011;43423;46.510;6.686;2023-04-06T08:51:41;11.50;;;7.70;;
57593;SDS011;43423;46.510;6.686;2023-04-06T08:54:07;10.98;;;7.63;;
57593;SDS011;43423;46.510;6.686;2023-04-06T08:56:32;8.77;;;6.70;;
57593;SDS011;43423;46.510;6.686;2023-04-06T08:59:02;12.05;;;7.30;;
57593;SDS011;43423;46.510;6.686;2023-04-06T09:01:28;12.73;;;7.35;;
57593;SDS011;43423;46.510;6.686;2023-04-06T09:03:57;9.95;;;6.72;;
57593;SDS011;43423;46.510;6.686;2023-04-06T09:06:24;10.25;;;6.05;;
57593;SDS011;43423;46.510;6.686;2023-04-06T09:08:52;10.18;;;6.97;;
57593;SDS011;43423;46.510;6.686;2023-04-06T09:11:18;11.00;;;7.10;;
57593;SDS011;43423;46.510;6.686;2023-04-06T09:13:47;12.45;;;7.20;;
57593;SDS011;43423;46.510;6.686;2023-04-06T09:16:17;12.43;;;7.45;;
57593;SDS011;43423;46.510;6.686;2023-04-06T09:18:44;9.25;;;7.20;;
57593;SDS011;43423;46.510;6.686;2023-04-06T09:21:10;11.80;;;6.65;;
57593;SDS011;43423;46.510;6.686;2023-04-06T09:23:37;9.82;;;7.25;;
57593;SDS011;43423;46.510;6.686;2023-04-06T09:26:06;16.42;;;7.43;;
57593;SDS011;43423;46.510;6.686;2023-04-06T09:28:44;8.70;;;7.15;;
57593;SDS011;43423;46.510;6.686;2023-04-06T09:31:14;12.10;;;6.47;;
57593;SDS011;43423;46.510;6.686;2023-04-06T09:33:42;11.18;;;7.38;;
57593;SDS011;43423;46.510;6.686;2023-04-06T09:36:08;12.60;;;7.95;;
57593;SDS011;43423;46.510;6.686;2023-04-06T09:38:38;9.88;;;6.82;;
57593;SDS011;43423;46.510;6.686;2023-04-06T09:41:20;11.15;;;7.15;;
57593;SDS011;43423;46.510;6.686;2023-04-06T09:43:47;12.30;;;7.05;;
57593;SDS011;43423;46.510;6.686;2023-04-06T09:46:12;14.30;;;7.72;;
57593;SDS011;43423;46.510;6.686;2023-04-06T09:48:40;12.65;;;7.97;;
57593;SDS011;43423;46.510;6.686;2023-04-06T09:51:06;12.98;;;8.10;;
57593;SDS011;43423;46.510;6.686;2023-04-06T09:53:34;14.25;;;7.95;;
57593;SDS011;43423;46.510;6.686;2023-04-06T09:56:04;10.57;;;7.27;;
57593;SDS011;43423;46.510;6.686;2023-04-06T09:58:36;12.45;;;7.60;;
57593;SDS011;43423;46.510;6.686;2023-04-06T10:01:09;11.32;;;7.95;;
57593;SDS011;43423;46.510;6.686;2023-04-06T10:06:32;15.90;;;7.20;;
57593;SDS011;43423;46.510;6.686;2023-04-06T10:09:01;15.85;;;7.60;;
57593;SDS011;43423;46.510;6.686;2023-04-06T10:11:29;11.95;;;6.95;;
57593;SDS011;43423;46.510;6.686;2023-04-06T10:13:56;10.23;;;6.97;;
57593;SDS011;43423;46.510;6.686;2023-04-06T10:16:22;12.35;;;7.03;;
57593;SDS011;43423;46.510;6.686;2023-04-06T10:18:50;9.48;;;6.45;;
57593;SDS011;43423;46.510;6.686;2023-04-06T10:21:20;9.90;;;6.60;;
57593;SDS011;43423;46.510;6.686;2023-04-06T10:26:23;10.18;;;6.30;;
57593;SDS011;43423;46.510;6.686;2023-04-06T10:28:49;11.75;;;7.10;;
57593;SDS011;43423;46.510;6.686;2023-04-06T10:31:23;9.32;;;6.05;;
57593;SDS011;43423;46.510;6.686;2023-04-06T10:33:53;11.93;;;6.75;;
57593;SDS011;43423;46.510;6.686;2023-04-06T10:36:24;9.32;;;6.53;;
57593;SDS011;43423;46.510;6.686;2023-04-06T10:41:24;10.90;;;6.60;;
57593;SDS011;43423;46.510;6.686;2023-04-06T10:44:23;13.25;;;6.82;;
57593;SDS011;43423;46.510;6.686;2023-04-06T10:46:53;12.23;;;7.25;;
57593;SDS011;43423;46.510;6.686;2023-04-06T10:49:23;11.23;;;6.50;;
57593;SDS011;43423;46.510;6.686;2023-04-06T10:51:53;9.38;;;6.68;;
57593;SDS011;43423;46.510;6.686;2023-04-06T10:54:23;10.75;;;6.60;;
57593;SDS011;43423;46.510;6.686;2023-04-06T10:56:50;11.52;;;7.03;;
57593;SDS011;43423;46.510;6.686;2023-04-06T10:59:20;10.00;;;7.05;;
57593;SDS011;43423;46.510;6.686;2023-04-06T11:01:46;9.50;;;5.88;;
57593;SDS011;43423;46.510;6.686;2023-04-06T11:04:15;8.60;;;5.60;;
57593;SDS011;43423;46.510;6.686;2023-04-06T11:06:46;10.35;;;6.35;;
57593;SDS011;43423;46.510;6.686;2023-04-06T11:09:26;11.45;;;6.00;;
57593;SDS011;43423;46.510;6.686;2023-04-06T11:11:53;8.55;;;5.78;;
57593;SDS011;43423;46.510;6.686;2023-04-06T11:14:19;11.43;;;6.45;;
57593;SDS011;43423;46.510;6.686;2023-04-06T11:16:46;11.05;;;5.75;;
57593;SDS011;43423;46.510;6.686;2023-04-06T11:19:13;7.60;;;5.13;;
57593;SDS011;43423;46.510;6.686;2023-04-06T11:21:40;8.43;;;5.45;;
57593;SDS011;43423;46.510;6.686;2023-04-06T11:31:50;10.20;;;5.55;;
57593;SDS011;43423;46.510;6.686;2023-04-06T11:34:18;11.07;;;5.90;;
57593;SDS011;43423;46.510;6.686;2023-04-06T11:36:46;10.23;;;5.65;;
57593;SDS011;43423;46.510;6.686;2023-04-06T11:39:13;11.00;;;6.50;;
57593;SDS011;43423;46.510;6.686;2023-04-06T11:41:51;11.63;;;6.20;;
57593;SDS011;43423;46.510;6.686;2023-04-06T11:47:00;9.93;;;6.22;;
57593;SDS011;43423;46.510;6.686;2023-04-06T11:49:27;14.13;;;6.68;;
57593;SDS011;43423;46.510;6.686;2023-04-06T11:51:54;11.27;;;6.57;;
57593;SDS011;43423;46.510;6.686;2023-04-06T11:54:36;11.05;;;6.82;;
57593;SDS011;43423;46.510;6.686;2023-04-06T11:57:05;11.45;;;6.32;;
57593;SDS011;43423;46.510;6.686;2023-04-06T11:59:33;14.38;;;7.45;;
57593;SDS011;43423;46.510;6.686;2023-04-06T12:01:58;13.20;;;7.53;;
57593;SDS011;43423;46.510;6.686;2023-04-06T12:04:25;11.02;;;6.13;;
57593;SDS011;43423;46.510;6.686;2023-04-06T12:06:50;9.82;;;6.45;;
57593;SDS011;43423;46.510;6.686;2023-04-06T12:09:16;12.80;;;6.63;;
57593;SDS011;43423;46.510;6.686;2023-04-06T12:11:42;11.75;;;6.57;;
57593;SDS011;43423;46.510;6.686;2023-04-06T12:14:08;9.95;;;7.07;;
57593;SDS011;43423;46.510;6.686;2023-04-06T12:16:34;13.52;;;8.00;;
57593;SDS011;43423;46.510;6.686;2023-04-06T12:19:00;11.05;;;6.85;;
57593;SDS011;43423;46.510;6.686;2023-04-06T12:21:35;11.50;;;7.07;;
57593;SDS011;43423;46.510;6.686;2023-04-06T12:24:03;10.48;;;6.60;;
57593;SDS011;43423;46.510;6.686;2023-04-06T12:26:32;12.70;;;6.65;;
57593;SDS011;43423;46.510;6.686;2023-04-06T12:28:58;13.55;;;7.38;;
57593;SDS011;43423;46.510;6.686;2023-04-06T12:31:31;11.60;;;6.55;;
57593;SDS011;43423;46.510;6.686;2023-04-06T12:33:58;13.40;;;7.15;;
57593;SDS011;43423;46.510;6.686;2023-04-06T12:36:23;12.57;;;7.28;;
57593;SDS011;43423;46.510;6.686;2023-04-06T12:38:50;11.40;;;7.22;;
57593;SDS011;43423;46.510;6.686;2023-04-06T12:41:16;13.68;;;7.00;;
57593;SDS011;43423;46.510;6.686;2023-04-06T12:43:43;12.65;;;7.40;;
57593;SDS011;43423;46.510;6.686;2023-04-06T12:46:09;11.88;;;6.88;;
57593;SDS011;43423;46.510;6.686;2023-04-06T12:48:36;11.35;;;6.60;;
57593;SDS011;43423;46.510;6.686;2023-04-06T12:51:02;11.60;;;6.57;;
57593;SDS011;43423;46.510;6.686;2023-04-06T12:53:31;15.07;;;7.18;;
57593;SDS011;43423;46.510;6.686;2023-04-06T12:55:58;12.60;;;6.90;;
57593;SDS011;43423;46.510;6.686;2023-04-06T12:58:24;14.35;;;7.40;;
57593;SDS011;43423;46.510;6.686;2023-04-06T13:00:53;13.02;;;6.40;;
57593;SDS011;43423;46.510;6.686;2023-04-06T13:03:19;11.05;;;6.38;;
57593;SDS011;43423;46.510;6.686;2023-04-06T13:05:46;11.82;;;7.05;;
57593;SDS011;43423;46.510;6.686;2023-04-06T13:08:13;11.15;;;7.10;;
57593;SDS011;43423;46.510;6.686;2023-04-06T13:10:49;11.15;;;7.10;;
57593;SDS011;43423;46.510;6.686;2023-04-06T13:13:25;11.75;;;6.65;;
57593;SDS011;43423;46.510;6.686;2023-04-06T13:15:52;9.85;;;5.50;;
57593;SDS011;43423;46.510;6.686;2023-04-06T13:18:18;10.98;;;5.22;;
57593;SDS011;43423;46.510;6.686;2023-04-06T13:20:46;9.95;;;5.72;;
57593;SDS011;43423;46.510;6.686;2023-04-06T13:23:12;11.13;;;6.25;;
57593;SDS011;43423;46.510;6.686;2023-04-06T13:25:37;13.07;;;6.32;;
57593;SDS011;43423;46.510;6.686;2023-04-06T13:28:03;6.05;;;3.35;;
57593;SDS011;43423;46.510;6.686;2023-04-06T13:30:28;8.63;;;4.63;;
57593;SDS011;43423;46.510;6.686;2023-04-06T13:32:54;7.53;;;4.50;;
57593;SDS011;43423;46.510;6.686;2023-04-06T13:35:20;7.85;;;4.00;;
57593;SDS011;43423;46.510;6.686;2023-04-06T13:37:46;11.63;;;6.25;;
57593;SDS011;43423;46.510;6.686;2023-04-06T13:40:11;11.80;;;5.47;;
57593;SDS011;43423;46.510;6.686;2023-04-06T13:42:37;9.65;;;5.80;;
57593;SDS011;43423;46.510;6.686;2023-04-06T13:45:06;9.25;;;5.05;;
57593;SDS011;43423;46.510;6.686;2023-04-06T13:47:33;6.18;;;3.58;;
57593;SDS011;43423;46.510;6.686;2023-04-06T13:49:58;7.35;;;5.30;;
57593;SDS011;43423;46.510;6.686;2023-04-06T13:52:25;12.98;;;6.15;;
57593;SDS011;43423;46.510;6.686;2023-04-06T13:54:51;11.85;;;6.22;;
57593;SDS011;43423;46.510;6.686;2023-04-06T13:57:16;10.50;;;5.63;;
57593;SDS011;43423;46.510;6.686;2023-04-06T13:59:42;7.55;;;4.03;;
57593;SDS011;43423;46.510;6.686;2023-04-06T14:02:08;8.10;;;5.03;;
57593;SDS011;43423;46.510;6.686;2023-04-06T14:04:34;10.02;;;5.30;;
57593;SDS011;43423;46.510;6.686;2023-04-06T14:07:00;9.82;;;4.90;;
57593;SDS011;43423;46.510;6.686;2023-04-06T14:09:26;9.45;;;5.15;;
57593;SDS011;43423;46.510;6.686;2023-04-06T14:11:55;9.38;;;4.88;;
57593;SDS011;43423;46.510;6.686;2023-04-06T14:14:21;7.78;;;4.50;;
57593;SDS011;43423;46.510;6.686;2023-04-06T14:16:48;8.18;;;5.28;;
57593;SDS011;43423;46.510;6.686;2023-04-06T14:19:14;8.63;;;4.75;;
57593;SDS011;43423;46.510;6.686;2023-04-06T14:21:43;9.88;;;5.00;;
57593;SDS011;43423;46.510;6.686;2023-04-06T14:24:09;11.13;;;5.80;;
57593;SDS011;43423;46.510;6.686;2023-04-06T14:26:35;9.32;;;4.97;;
57593;SDS011;43423;46.510;6.686;2023-04-06T14:29:02;7.63;;;4.75;;
57593;SDS011;43423;46.510;6.686;2023-04-06T14:31:29;7.70;;;4.43;;
57593;SDS011;43423;46.510;6.686;2023-04-06T14:33:54;8.05;;;4.60;;
57593;SDS011;43423;46.510;6.686;2023-04-06T14:36:20;9.68;;;4.28;;
57593;SDS011;43423;46.510;6.686;2023-04-06T14:38:46;7.00;;;3.75;;
57593;SDS011;43423;46.510;6.686;2023-04-06T14:41:16;7.13;;;3.53;;
57593;SDS011;43423;46.510;6.686;2023-04-06T14:43:45;6.32;;;3.60;;
57593;SDS011;43423;46.510;6.686;2023-04-06T14:46:12;7.22;;;3.45;;
57593;SDS011;43423;46.510;6.686;2023-04-06T14:48:38;9.93;;;4.30;;
57593;SDS011;43423;46.510;6.686;2023-04-06T14:51:03;10.45;;;6.13;;
57593;SDS011;43423;46.510;6.686;2023-04-06T14:53:29;11.48;;;6.32;;
57593;SDS011;43423;46.510;6.686;2023-04-06T14:55:56;9.50;;;5.85;;